Time;durP1;ratioP1;P1;durP2;ratioP2;P2;SDS_P1;SDS_P2;PMS_P1;PMS_P2;Temp;Humidity;BMP_temperature;BMP_pressure;BME280_temperature;BME280_humidity;BME280_pressure;Samples;Min_cycle;Max_cycle;Signal;HPM_P1;HPM_P2
2021/12/19 00:00:33;;;;;;;;;;;;;;;17.38;32.00;97038.69;10396555;28;2152;-53
2021/12/19 00:10:53;;;;;;;;;;;;;;;17.43;32.04;97072.91;10392036;28;1951;-59
2021/12/19 00:15:54;;;;;;;;;;;;;;;17.47;32.33;97074.06;10404401;28;1973;-58
2021/12/19 00:20:54;;;;;;;;;;;;;;;17.49;32.42;97058.94;10385611;28;1810;-57
2021/12/19 00:25:55;;;;;;;;;;;;;;;17.50;31.93;97047.41;10384377;28;1822;-58
2021/12/19 00:30:55;;;;;;;;;;;;;;;17.52;31.82;97034.88;10398414;28;1850;-59
2021/12/19 00:35:55;;;;;;;;;;;;;;;17.52;31.82;97034.88;10395465;28;2148;-57
2021/12/19 00:40:57;;;;;;;;;;;;;;;17.55;31.54;97031.84;10399860;28;1803;-56
2021/12/19 00:45:58;;;;;;;;;;;;;;;17.58;31.50;97041.06;10401576;28;1810;-59
2021/12/19 00:50:59;;;;;;;;;;;;;;;17.59;31.31;97040.03;10400567;28;1860;-53
2021/12/19 00:55:59;;;;;;;;;;;;;;;17.62;31.28;97039.63;10401729;28;1884;-60
2021/12/19 01:01:00;;;;;;;;;;;;;;;17.63;31.35;97034.13;10398707;28;1930;-58
2021/12/19 01:06:01;;;;;;;;;;;;;;;17.65;31.15;97033.91;10402093;28;1883;-58
2021/12/19 01:11:01;;;;;;;;;;;;;;;17.67;31.07;97024.81;10400475;28;1829;-57
2021/12/19 01:16:02;;;;;;;;;;;;;;;17.68;31.15;97017.75;10395066;28;2033;-57
2021/12/19 01:21:03;;;;;;;;;;;;;;;17.71;31.04;97012.03;10396791;28;1818;-58
2021/12/19 01:26:04;;;;;;;;;;;;;;;17.73;31.04;97020.47;10406414;28;1868;-57
2021/12/19 01:31:04;;;;;;;;;;;;;;;17.74;30.99;97016.84;10398650;28;2319;-57
2021/12/19 01:36:05;;;;;;;;;;;;;;;17.77;31.18;97013.75;10402067;28;1967;-57
2021/12/19 01:41:05;;;;;;;;;;;;;;;17.77;30.99;97017.19;10400682;28;1873;-56
2021/12/19 01:46:06;;;;;;;;;;;;;;;17.79;30.84;97019.56;10393839;28;1937;-60
2021/12/19 01:51:06;;;;;;;;;;;;;;;17.81;30.81;97031.44;10398765;28;2015;-57
2021/12/19 01:56:07;;;;;;;;;;;;;;;17.83;30.83;97015.47;10398795;28;2069;-60
2021/12/19 02:01:08;;;;;;;;;;;;;;;17.83;30.77;97026.75;10399487;28;2088;-58
2021/12/19 02:06:08;;;;;;;;;;;;;;;17.85;30.68;97016.03;10396502;28;2059;-57
2021/12/19 02:11:08;;;;;;;;;;;;;;;17.86;30.90;97017.66;10399901;28;2024;-57
2021/12/19 02:16:09;;;;;;;;;;;;;;;17.88;30.76;97016.41;10390241;28;1902;-56
2021/12/19 02:21:10;;;;;;;;;;;;;;;17.89;30.64;97010.13;10381905;28;2021;-61
2021/12/19 02:26:12;;;;;;;;;;;;;;;17.88;30.48;97019.03;10396646;28;1796;-57
2021/12/19 02:31:12;;;;;;;;;;;;;;;17.92;30.58;97015.94;10391101;28;1911;-59
2021/12/19 02:51:53;;;;;;;;;;;;;;;17.97;30.62;97000.34;10405237;28;1810;-59
2021/12/19 02:56:54;;;;;;;;;;;;;;;17.99;30.70;97019.28;10390392;28;1973;-59
2021/12/19 03:01:55;;;;;;;;;;;;;;;18.00;30.53;97010.38;10383681;28;2138;-57
2021/12/19 03:06:55;;;;;;;;;;;;;;;18.00;30.55;97005.13;10392771;28;2014;-58
2021/12/19 03:22:25;;;;;;;;;;;;;;;18.03;30.42;96989.75;10393841;28;1838;-58
2021/12/19 03:27:27;;;;;;;;;;;;;;;18.05;30.39;96971.13;10383194;28;2136;-59
2021/12/19 03:32:28;;;;;;;;;;;;;;;18.05;30.38;96955.41;10397424;28;2048;-59
2021/12/19 03:37:28;;;;;;;;;;;;;;;18.06;30.26;96956.97;10401904;28;1969;-59
2021/12/19 03:42:28;;;;;;;;;;;;;;;18.07;30.30;96948.09;10405159;28;1953;-59
2021/12/19 03:47:29;;;;;;;;;;;;;;;18.07;30.30;96962.03;10386767;28;1845;-58
2021/12/19 03:52:29;;;;;;;;;;;;;;;18.08;30.16;96960.16;10400761;28;1752;-58
2021/12/19 03:57:30;;;;;;;;;;;;;;;18.08;30.20;96962.78;10371224;28;1931;-61
2021/12/19 04:02:30;;;;;;;;;;;;;;;18.10;30.27;96964.16;10400050;28;1993;-56
2021/12/19 04:07:31;;;;;;;;;;;;;;;18.10;30.23;96940.56;10397111;28;1831;-56
2021/12/19 04:12:31;;;;;;;;;;;;;;;18.10;29.98;96931.88;10383204;28;1894;-57
2021/12/19 04:17:33;;;;;;;;;;;;;;;18.11;30.00;96933.50;10397230;28;1993;-55
2021/12/19 04:22:33;;;;;;;;;;;;;;;18.12;30.09;96941.13;10402164;28;1893;-56
2021/12/19 04:27:34;;;;;;;;;;;;;;;18.12;30.19;96914.88;10393212;28;1810;-58
2021/12/19 04:32:40;;;;;;;;;;;;;;;18.14;30.04;96925.16;10400677;28;1899;-58
2021/12/19 04:38:50;;;;;;;;;;;;;;;18.14;30.11;96918.06;10376182;28;2204;-55
2021/12/19 04:54:47;;;;;;;;;;;;;;;18.18;30.00;96903.47;10403493;28;2559;-57
2021/12/19 05:15:07;;;;;;;;;;;;;;;18.20;29.71;96874.38;10401412;28;1973;-56
2021/12/19 05:25:14;;;;;;;;;;;;;;;18.22;29.91;96891.47;10382820;28;1951;-56
2021/12/19 05:30:15;;;;;;;;;;;;;;;18.24;29.83;96904.38;10384941;28;1901;-58
2021/12/19 05:35:20;;;;;;;;;;;;;;;18.24;29.94;96899.13;10390835;28;2227;-57
2021/12/19 05:45:40;;;;;;;;;;;;;;;18.26;30.00;96910.97;10397135;28;1860;-55
2021/12/19 05:50:42;;;;;;;;;;;;;;;18.26;29.81;96907.59;10387179;28;1866;-57
2021/12/19 05:55:43;;;;;;;;;;;;;;;18.27;29.84;96888.16;10396975;28;1913;-57
2021/12/19 06:00:43;;;;;;;;;;;;;;;18.27;29.79;96882.91;10390594;28;1981;-60
2021/12/19 06:05:44;;;;;;;;;;;;;;;18.29;29.79;96878.25;10401104;28;1878;-55
2021/12/19 06:10:44;;;;;;;;;;;;;;;18.29;29.81;96879.03;10397425;28;2105;-54
2021/12/19 06:15:44;;;;;;;;;;;;;;;18.30;29.84;96883.25;10389347;28;1936;-56
2021/12/19 06:20:45;;;;;;;;;;;;;;;18.31;29.86;96884.06;10376329;28;2342;-58
2021/12/19 06:25:46;;;;;;;;;;;;;;;18.31;29.56;96876.97;10399334;28;1805;-60
2021/12/19 06:30:46;;;;;;;;;;;;;;;18.33;29.65;96866.25;10398650;28;2367;-60
2021/12/19 06:35:46;;;;;;;;;;;;;;;18.34;29.79;96859.97;10401555;28;2171;-58
2021/12/19 06:40:47;;;;;;;;;;;;;;;18.33;29.72;96868.88;10405180;28;1886;-58
2021/12/19 06:45:48;;;;;;;;;;;;;;;18.35;29.67;96866.81;10405745;28;1854;-58
2021/12/19 06:50:48;;;;;;;;;;;;;;;18.36;29.65;96855.28;10408460;28;1855;-58
2021/12/19 06:55:49;;;;;;;;;;;;;;;18.37;29.80;96855.06;10404736;28;1918;-57
2021/12/19 07:00:49;;;;;;;;;;;;;;;18.37;29.58;96849.00;10406630;28;1957;-57
2021/12/19 07:05:50;;;;;;;;;;;;;;;18.37;29.57;96849.00;10402040;28;1901;-58
2021/12/19 07:10:51;;;;;;;;;;;;;;;18.38;29.45;96840.88;10406465;28;1816;-54
2021/12/19 07:15:52;;;;;;;;;;;;;;;18.39;29.59;96841.69;10403215;28;1967;-53
2021/12/19 07:20:53;;;;;;;;;;;;;;;18.38;29.70;96830.38;10403791;28;1768;-59
2021/12/19 07:25:53;;;;;;;;;;;;;;;18.38;29.57;96830.38;10396720;28;1924;-59
2021/12/19 07:30:56;;;;;;;;;;;;;;;18.39;29.63;96821.50;10391454;28;1976;-55
2021/12/19 07:35:59;;;;;;;;;;;;;;;18.40;29.67;96851.16;10404267;28;1914;-57
2021/12/19 07:41:02;;;;;;;;;;;;;;;18.41;29.59;96850.94;10406043;28;1894;-57
2021/12/19 07:51:08;;;;;;;;;;;;;;;18.43;29.42;96834.94;10384945;28;1844;-72
2021/12/19 07:56:08;;;;;;;;;;;;;;;18.43;29.46;96824.44;10364677;28;1958;-73
2021/12/19 08:01:08;;;;;;;;;;;;;;;18.42;29.43;96815.75;10363719;28;1808;-72
2021/12/19 08:06:09;;;;;;;;;;;;;;;18.43;29.39;96806.06;10356341;28;2080;-73
2021/12/19 08:16:28;;;;;;;;;;;;;;;18.42;29.04;96799.22;10347046;28;1965;-72
2021/12/19 08:21:29;;;;;;;;;;;;;;;18.44;29.20;96797.97;10365023;28;1982;-72
2021/12/19 08:26:29;;;;;;;;;;;;;;;18.45;29.36;96793.53;10348306;28;2216;-71
2021/12/19 08:31:30;;;;;;;;;;;;;;;18.46;29.52;96797.75;10355603;28;1925;-72
2021/12/19 08:36:30;;;;;;;;;;;;;;;18.46;29.35;96806.44;10346779;28;1910;-73
2021/12/19 08:41:31;;;;;;;;;;;;;;;18.46;29.38;96795.13;10374042;28;1886;-72
2021/12/19 08:46:35;;;;;;;;;;;;;;;18.48;29.23;96800.94;10361728;28;2201;-71
2021/12/19 08:51:37;;;;;;;;;;;;;;;18.48;29.08;96788.63;10357551;28;1868;-72
2021/12/19 08:56:38;;;;;;;;;;;;;;;18.48;29.18;96777.31;10362901;28;2017;-73
2021/12/19 09:01:39;;;;;;;;;;;;;;;18.48;29.39;96769.44;10359901;28;1829;-73
2021/12/19 09:06:39;;;;;;;;;;;;;;;18.50;29.31;96781.31;10329392;28;1837;-72
2021/12/19 09:11:40;;;;;;;;;;;;;;;18.52;29.04;96786.31;10369404;28;1862;-72
2021/12/19 09:16:40;;;;;;;;;;;;;;;18.48;29.05;96762.38;10329257;28;1965;-73
2021/12/19 09:21:41;;;;;;;;;;;;;;;18.51;29.19;96761.06;10372685;28;1974;-72
2021/12/19 09:26:43;;;;;;;;;;;;;;;18.52;29.04;96767.94;10363247;28;1946;-72
2021/12/19 09:31:44;;;;;;;;;;;;;;;18.52;29.25;96760.88;10372189;28;1891;-72
2021/12/19 09:36:44;;;;;;;;;;;;;;;18.55;29.31;96765.63;10339129;28;1991;-73
2021/12/19 09:41:45;;;;;;;;;;;;;;;18.55;29.60;96764.81;10360062;28;1896;-73
2021/12/19 09:46:46;;;;;;;;;;;;;;;18.54;29.25;96758.81;10341983;28;1849;-72
2021/12/19 09:51:47;;;;;;;;;;;;;;;18.56;29.42;96750.69;10361800;28;1978;-72
2021/12/19 09:56:49;;;;;;;;;;;;;;;18.56;29.34;96737.56;10356756;28;1915;-72
2021/12/19 10:01:50;;;;;;;;;;;;;;;18.58;29.38;96735.47;10343823;28;2027;-73
2021/12/19 10:07:01;;;;;;;;;;;;;;;18.58;29.41;96722.34;10378016;28;1789;-73
2021/12/19 10:12:23;;;;;;;;;;;;;;;18.59;29.34;96706.34;10380212;28;1891;-73
2021/12/19 10:17:24;;;;;;;;;;;;;;;18.60;29.42;96688.78;10362960;28;2151;-72
2021/12/19 10:22:24;;;;;;;;;;;;;;;18.59;29.34;96672.22;10369790;28;1811;-72
2021/12/19 10:27:31;;;;;;;;;;;;;;;18.59;29.03;96658.28;10373408;28;1847;-72
2021/12/19 10:32:31;;;;;;;;;;;;;;;18.60;29.38;96644.94;10368899;28;2129;-72
2021/12/19 10:37:32;;;;;;;;;;;;;;;18.62;29.13;96637.63;10367350;28;2374;-73
2021/12/19 10:42:55;;;;;;;;;;;;;;;18.65;29.17;96631.06;10368152;28;1851;-72
2021/12/19 10:48:08;;;;;;;;;;;;;;;18.75;29.50;96604.19;10371904;28;1900;-73
2021/12/19 10:53:08;;;;;;;;;;;;;;;18.94;29.69;96601.03;10365119;28;1817;-73
2021/12/19 10:58:23;;;;;;;;;;;;;;;19.04;29.58;96595.91;10359881;28;1914;-72
2021/12/19 11:03:52;;;;;;;;;;;;;;;19.11;29.37;96582.59;10367819;28;2206;-72
2021/12/19 11:08:53;;;;;;;;;;;;;;;19.12;29.50;96568.44;10363342;28;2040;-73
2021/12/19 11:13:53;;;;;;;;;;;;;;;19.13;29.59;96570.78;10342045;28;1857;-74
2021/12/19 11:18:54;;;;;;;;;;;;;;;19.16;29.55;96565.06;10363880;28;1985;-74
2021/12/19 11:23:54;;;;;;;;;;;;;;;19.17;29.56;96553.50;10367728;28;1963;-73
2021/12/19 11:28:55;;;;;;;;;;;;;;;19.21;29.55;96548.53;10341723;28;1881;-73
2021/12/19 11:33:56;;;;;;;;;;;;;;;19.20;29.60;96534.63;10352032;28;1841;-73
2021/12/19 11:38:56;;;;;;;;;;;;;;;19.23;29.59;96520.97;10349558;28;1969;-73
2021/12/19 11:43:59;;;;;;;;;;;;;;;19.25;29.56;96505.75;10363674;28;1917;-73
2021/12/19 11:49:11;;;;;;;;;;;;;;;19.25;29.65;96495.25;10360524;28;1883;-74
2021/12/19 11:54:13;;;;;;;;;;;;;;;19.29;29.63;96485.00;10372474;28;1922;-73
2021/12/19 11:59:16;;;;;;;;;;;;;;;19.31;29.57;96478.47;10361157;28;1835;-73
2021/12/19 12:04:19;;;;;;;;;;;;;;;19.33;29.56;96471.16;10330662;28;1839;-73
2021/12/19 12:09:28;;;;;;;;;;;;;;;19.33;29.64;96471.16;10346396;28;1885;-73
2021/12/19 12:14:30;;;;;;;;;;;;;;;19.34;29.53;96457.00;10345770;28;1934;-73
2021/12/19 12:19:42;;;;;;;;;;;;;;;19.37;29.66;96429.44;10374752;28;1933;-73
2021/12/19 12:24:57;;;;;;;;;;;;;;;19.38;29.68;96418.66;10376506;28;1894;-73
2021/12/19 12:29:57;;;;;;;;;;;;;;;19.40;29.65;96405.25;10365922;28;1843;-74
2021/12/19 12:34:58;;;;;;;;;;;;;;;19.38;29.51;96389.72;10360615;28;1972;-74
2021/12/19 12:40:31;;;;;;;;;;;;;;;19.42;29.57;96380.31;10361099;28;1871;-73
2021/12/19 12:45:46;;;;;;;;;;;;;;;19.47;29.51;96382.19;10354777;28;1906;-73
2021/12/19 12:50:49;;;;;;;;;;;;;;;19.44;29.58;96383.47;10361620;28;2159;-72
2021/12/19 12:56:23;;;;;;;;;;;;;;;19.44;29.77;96388.72;10364765;28;1963;-73
2021/12/19 13:01:23;;;;;;;;;;;;;;;19.48;29.70;96381.94;10336190;28;1914;-74
2021/12/19 13:06:34;;;;;;;;;;;;;;;19.51;29.76;96374.56;10377888;28;1816;-71
2021/12/19 13:11:35;;;;;;;;;;;;;;;19.51;29.67;96364.06;10349621;28;1875;-73
2021/12/19 13:16:42;;;;;;;;;;;;;;;19.49;29.51;96349.31;10357755;28;1967;-73
2021/12/19 13:21:53;;;;;;;;;;;;;;;19.54;29.70;96345.16;10369625;28;1864;-73
2021/12/19 13:27:13;;;;;;;;;;;;;;;19.56;29.81;96328.06;10357383;28;1896;-73
2021/12/19 13:32:18;;;;;;;;;;;;;;;19.57;29.64;96334.13;10357485;28;2012;-73
2021/12/19 13:37:18;;;;;;;;;;;;;;;19.53;29.74;96333.03;10360093;28;1952;-73
2021/12/19 13:42:19;;;;;;;;;;;;;;;19.52;29.54;96326.19;10362672;28;1844;-73
2021/12/19 13:47:23;;;;;;;;;;;;;;;19.48;29.43;96321.44;10361307;28;2067;-74
2021/12/19 13:52:23;;;;;;;;;;;;;;;19.44;29.49;96322.19;10358835;28;1842;-73
2021/12/19 13:57:24;;;;;;;;;;;;;;;19.46;29.48;96320.91;10326032;28;1911;-73
2021/12/19 14:02:24;;;;;;;;;;;;;;;19.49;29.77;96317.75;10362897;28;1861;-73
2021/12/19 14:07:28;;;;;;;;;;;;;;;19.48;29.65;96310.13;10339226;28;1879;-73
2021/12/19 14:13:16;;;;;;;;;;;;;;;19.47;29.68;96304.06;10343982;28;1761;-73
2021/12/19 14:17:50;;;;;;;;;;;;;;;19.45;29.67;96300.13;10362347;28;2219;-73
2021/12/19 14:22:50;;;;;;;;;;;;;;;19.43;29.67;96292.47;10362987;28;1975;-74
2021/12/19 14:27:50;;;;;;;;;;;;;;;19.42;29.61;96292.75;10343832;28;1729;-73
2021/12/19 14:32:52;;;;;;;;;;;;;;;19.41;29.68;96293.81;10360130;28;1983;-73
2021/12/19 14:37:53;;;;;;;;;;;;;;;19.42;29.68;96290.91;10328580;28;1906;-72
2021/12/19 14:42:57;;;;;;;;;;;;;;;19.37;29.50;96282.97;10352040;28;1951;-73
2021/12/19 14:48:01;;;;;;;;;;;;;;;19.37;29.63;96275.09;10362492;28;1871;-74
2021/12/19 14:53:01;;;;;;;;;;;;;;;19.38;29.54;96270.63;10368911;28;1869;-74
2021/12/19 14:58:02;;;;;;;;;;;;;;;19.36;29.67;96270.91;10369449;28;1942;-73
2021/12/19 15:03:03;;;;;;;;;;;;;;;19.33;29.53;96260.06;10367441;28;2007;-73
2021/12/19 15:08:09;;;;;;;;;;;;;;;19.36;29.47;96270.91;10349968;28;1858;-73
2021/12/19 15:13:09;;;;;;;;;;;;;;;19.33;29.81;96271.38;10366616;28;1822;-72
2021/12/19 15:18:10;;;;;;;;;;;;;;;19.33;29.61;96258.25;10331225;28;1964;-72
2021/12/19 15:23:10;;;;;;;;;;;;;;;19.35;29.69;96256.16;10367489;28;1819;-73
2021/12/19 15:28:14;;;;;;;;;;;;;;;19.45;29.69;96248.31;10367543;28;1840;-73
2021/12/19 15:33:16;;;;;;;;;;;;;;;19.49;29.68;96262.53;10342486;28;1843;-72
2021/12/19 15:38:16;;;;;;;;;;;;;;;19.57;29.95;96260.50;10358541;28;1979;-73
2021/12/19 15:43:17;;;;;;;;;;;;;;;19.64;30.12;96253.94;10370172;28;1856;-73
2021/12/19 15:48:17;;;;;;;;;;;;;;;19.64;30.05;96253.19;10350513;28;1992;-74
2021/12/19 15:53:17;;;;;;;;;;;;;;;19.67;30.32;96257.91;10358742;28;2010;-72
2021/12/19 15:58:18;;;;;;;;;;;;;;;19.68;30.36;96260.28;10359967;28;1981;-73
2021/12/19 16:03:19;;;;;;;;;;;;;;;19.75;30.38;96267.94;10373789;28;1943;-71
2021/12/19 16:08:20;;;;;;;;;;;;;;;19.79;30.55;96269.81;10357914;28;1993;-68
2021/12/19 16:13:22;;;;;;;;;;;;;;;19.82;30.29;96281.69;10370898;22;1837;-57
2021/12/19 16:18:22;;;;;;;;;;;;;;;19.80;30.55;96283.78;10447597;28;1914;-57
2021/12/19 16:23:23;;;;;;;;;;;;;;;19.82;30.61;96286.94;10448220;28;1882;-59
2021/12/19 16:28:23;;;;;;;;;;;;;;;19.86;30.75;96291.44;10445890;28;1398;-59
2021/12/19 16:33:25;;;;;;;;;;;;;;;19.87;30.68;96289.56;10443929;28;1947;-56
2021/12/19 16:38:26;;;;;;;;;;;;;;;19.89;30.67;96284.84;10441488;28;1915;-53
2021/12/19 16:43:30;;;;;;;;;;;;;;;19.91;30.88;96283.56;10413282;28;1854;-58
2021/12/19 16:48:30;;;;;;;;;;;;;;;19.91;31.08;96286.19;10442388;28;1926;-55
2021/12/19 16:53:31;;;;;;;;;;;;;;;19.93;31.07;96296.44;10444720;28;1917;-55
2021/12/19 16:58:31;;;;;;;;;;;;;;;19.97;30.90;96293.06;10446082;28;1902;-57
2021/12/19 17:03:33;;;;;;;;;;;;;;;19.96;30.98;96307.28;10447773;28;1936;-55
2021/12/19 17:08:34;;;;;;;;;;;;;;;19.99;31.00;96305.97;10444672;28;1854;-54
2021/12/19 17:13:40;;;;;;;;;;;;;;;20.01;30.90;96309.16;10445700;28;1842;-55
2021/12/19 17:18:41;;;;;;;;;;;;;;;20.02;30.93;96315.97;10445549;28;1977;-54
2021/12/19 17:23:41;;;;;;;;;;;;;;;20.01;31.15;96315.19;10448632;28;1194;-57
2021/12/19 17:28:43;;;;;;;;;;;;;;;20.04;31.17;96321.78;10443012;28;1682;-55
2021/12/19 17:33:44;;;;;;;;;;;;;;;20.04;31.27;96314.69;10445831;28;1962;-56
2021/12/19 17:38:48;;;;;;;;;;;;;;;20.06;30.73;96296.00;10444094;28;2069;-57
2021/12/19 17:43:48;;;;;;;;;;;;;;;20.06;30.86;96301.25;10444285;28;1694;-58
2021/12/19 17:48:49;;;;;;;;;;;;;;;20.05;30.96;96304.94;10445635;28;1939;-55
2021/12/19 17:53:49;;;;;;;;;;;;;;;20.07;31.00;96300.22;10442986;28;1879;-58
2021/12/19 17:58:50;;;;;;;;;;;;;;;20.10;31.22;96307.59;10432729;28;1910;-55
2021/12/19 18:03:57;;;;;;;;;;;;;;;20.14;30.86;96311.28;10442057;28;984;-57
2021/12/19 18:08:57;;;;;;;;;;;;;;;20.09;30.67;96295.50;10444404;28;1558;-57
2021/12/19 18:13:58;;;;;;;;;;;;;;;20.12;30.67;96298.41;10442503;28;1888;-56
2021/12/19 18:18:58;;;;;;;;;;;;;;;20.15;30.87;96311.03;10445693;28;2001;-54
2021/12/19 18:24:00;;;;;;;;;;;;;;;20.12;30.64;96305.50;10451147;28;1737;-55
2021/12/19 18:29:01;;;;;;;;;;;;;;;20.13;30.48;96307.09;10448876;28;1523;-56
2021/12/19 18:34:09;;;;;;;;;;;;;;;20.12;30.61;96321.28;10453219;28;1078;-57
2021/12/19 18:39:11;;;;;;;;;;;;;;;20.15;30.83;96321.56;10450362;28;1910;-57
2021/12/19 18:44:18;;;;;;;;;;;;;;;20.15;30.64;96312.88;10444607;28;1399;-56
2021/12/19 18:49:35;;;;;;;;;;;;;;;20.15;30.29;96311.03;10449483;28;1822;-57
2021/12/19 18:59:43;;;;;;;;;;;;;;;20.18;30.50;96315.00;10446807;28;1426;-57
2021/12/19 19:04:44;;;;;;;;;;;;;;;20.18;30.57;96315.78;10450411;28;1514;-54
2021/12/19 19:09:46;;;;;;;;;;;;;;;20.25;30.94;96329.56;10448069;28;1463;-55
2021/12/19 19:14:49;;;;;;;;;;;;;;;20.29;30.67;96342.97;10445802;28;1989;-54
2021/12/19 19:19:49;;;;;;;;;;;;;;;20.24;30.88;96351.66;10446716;28;1335;-54
2021/12/19 19:24:50;;;;;;;;;;;;;;;20.29;30.95;96353.50;10451360;28;1367;-55
2021/12/19 19:29:50;;;;;;;;;;;;;;;20.32;30.63;96355.63;10447214;28;1766;-56
2021/12/19 19:34:51;;;;;;;;;;;;;;;20.30;30.72;96349.06;10450725;28;1948;-54
2021/12/19 19:50:13;;;;;;;;;;;;;;;20.31;30.87;96367.22;10445573;28;1710;-56
2021/12/19 19:55:14;;;;;;;;;;;;;;;20.36;31.13;96375.13;10461730;22;2281;-40
2021/12/19 20:00:16;;;;;;;;;;;;;;;20.32;31.29;96376.69;10448539;28;2018;-40
2021/12/19 20:05:16;;;;;;;;;;;;;;;20.30;31.34;96367.47;10444396;28;2170;-38
2021/12/19 20:10:17;;;;;;;;;;;;;;;20.30;31.43;96378.00;10440858;28;1932;-41
2021/12/19 20:15:17;;;;;;;;;;;;;;;20.31;31.36;96367.22;10444235;28;2036;-38
2021/12/19 20:20:18;;;;;;;;;;;;;;;20.28;31.21;96363.25;10440614;28;1830;-41
2021/12/19 20:25:18;;;;;;;;;;;;;;;20.28;31.39;96357.19;10422618;28;2164;-45
2021/12/19 20:30:19;;;;;;;;;;;;;;;20.28;31.33;96349.28;10434456;28;1929;-42
2021/12/19 20:35:19;;;;;;;;;;;;;;;20.27;31.83;96352.97;10454581;28;1918;-43
2021/12/19 20:40:20;;;;;;;;;;;;;;;20.30;31.43;96338.53;10429310;28;2241;-44
2021/12/19 20:45:22;;;;;;;;;;;;;;;20.29;31.15;96337.72;10431691;28;1821;-40
2021/12/19 20:50:23;;;;;;;;;;;;;;;20.30;31.29;96336.66;10434932;28;2354;-44
2021/12/19 20:55:23;;;;;;;;;;;;;;;20.30;32.02;96339.28;10437996;28;1906;-40
2021/12/19 21:00:24;;;;;;;;;;;;;;;20.34;31.84;96347.47;10430832;28;1383;-42
2021/12/19 21:05:25;;;;;;;;;;;;;;;20.32;31.29;96339.81;10436640;28;1489;-41
2021/12/19 21:10:26;;;;;;;;;;;;;;;20.32;31.55;96339.81;10424178;28;1416;-42
2021/12/19 21:19:21;;;;;;;;;;;;;;;20.26;30.67;96338.22;10438208;28;1914;-46
2021/12/19 21:20:47;;;;;;;;;;;;;;;20.23;30.04;96330.84;10436635;28;1696;-40
2021/12/19 21:25:47;;;;;;;;;;;;;;;20.25;31.18;96332.19;10435836;28;1328;-41
2021/12/19 21:30:49;;;;;;;;;;;;;;;20.25;30.83;96336.66;10428328;28;1582;-42
2021/12/19 21:41:09;;;;;;;;;;;;;;;20.24;30.07;96329.78;10426238;28;1823;-40
2021/12/19 21:46:09;;;;;;;;;;;;;;;20.29;31.20;96337.72;10433642;28;1962;-39
2021/12/19 21:51:10;;;;;;;;;;;;;;;20.28;31.87;96336.91;10426380;28;1898;-39
2021/12/19 21:56:12;;;;;;;;;;;;;;;20.30;31.71;96331.38;10433194;28;2190;-40
2021/12/19 22:01:15;;;;;;;;;;;;;;;20.31;31.81;96337.44;10442393;28;1863;-42
2021/12/19 22:06:15;;;;;;;;;;;;;;;20.31;31.90;96338.25;10435440;28;2194;-39
2021/12/19 22:11:21;;;;;;;;;;;;;;;20.25;31.88;96339.28;10435333;28;1939;-47
2021/12/19 22:16:22;;;;;;;;;;;;;;;20.18;31.91;96331.59;10438933;28;2101;-47
2021/12/19 22:21:22;;;;;;;;;;;;;;;20.14;32.01;96319.19;10430587;28;2150;-47
2021/12/19 22:26:23;;;;;;;;;;;;;;;20.07;31.88;96318.66;10434323;28;1851;-44
2021/12/19 22:31:24;;;;;;;;;;;;;;;20.03;31.81;96307.03;10436549;28;1881;-43
2021/12/19 22:36:24;;;;;;;;;;;;;;;19.94;31.95;96298.03;10432203;28;2255;-42
2021/12/19 22:41:25;;;;;;;;;;;;;;;19.89;31.84;96300.63;10435879;28;1816;-48
2021/12/19 22:46:26;;;;;;;;;;;;;;;19.85;31.85;96310.09;10440210;28;2019;-44
2021/12/19 22:51:26;;;;;;;;;;;;;;;19.82;31.76;96297.47;10434537;28;1883;-43
2021/12/19 22:56:27;;;;;;;;;;;;;;;19.77;31.70;96292.97;10445920;28;1979;-46
2021/12/19 23:01:27;;;;;;;;;;;;;;;19.74;31.54;96285.56;10438787;28;1901;-44
2021/12/19 23:06:28;;;;;;;;;;;;;;;19.69;31.55;96282.13;10438001;28;1831;-41
2021/12/19 23:11:28;;;;;;;;;;;;;;;19.61;31.57;96265.00;10436799;28;1854;-42
2021/12/19 23:16:59;;;;;;;;;;;;;;;19.59;31.58;96263.66;10440782;28;1914;-40
2021/12/19 23:21:59;;;;;;;;;;;;;;;19.55;31.41;96252.06;10422398;28;1868;-44
2021/12/19 23:26:59;;;;;;;;;;;;;;;19.49;31.44;96246.00;10440362;28;2022;-39
2021/12/19 23:32:00;;;;;;;;;;;;;;;19.44;31.42;96251.22;10437205;28;1898;-41
2021/12/19 23:38:06;;;;;;;;;;;;;;;19.39;31.56;96236.19;10433786;28;1971;-41
2021/12/19 23:42:50;;;;;;;;;;;;;;;19.34;31.51;96254.59;10427265;28;1864;-39
2021/12/19 23:47:52;;;;;;;;;;;;;;;19.30;31.63;96240.34;10437015;28;1866;-40
2021/12/19 23:52:53;;;;;;;;;;;;;;;19.28;31.37;96231.91;10436204;28;1779;-44
2021/12/19 23:57:54;;;;;;;;;;;;;;;19.24;31.34;96230.84;10439849;28;1907;-43
